Latest Weather Observations for Moss Vale

IDN60801

Issued at 10:05 am EDT Thursday 27 November 2014 (issued every 30 minutes, with the page automatically refreshed every 10 minutes)

About weather observations | Map of weather stations | Latest weather observations for NSW | Other Formats
Station Details ID: 068239 Name: MOSS VALE AWS Lat: -34.53 Lon: 150.42 Height: 678.4 m
Data from the previous 72 hours. | See also: Recent months at Moss Vale
Date/Time
EDT
Temp
°C
App
Temp
°C
Dew
Point
Rel
Hum
%
Delta-T
°C
Wind Press
QNH
hPa
Press
MSL
hPa
Rain
since 9 am
mm
Dir
 
Spd
km/h
Gust
km/h
Spd
kts
Gust
kts
27/10:00am 13.1 10.9 12.0 93 0.6 SE 15 20 8 11 1023.5 1021.6 0.0
27/09:30am 13.0 10.1 12.2 95 0.4 SE 19 24 10 13 1023.6 1021.7 0.0
27/09:00am 13.0 10.8 12.2 95 0.4 SE 15 20 8 11 1023.5 1021.6 2.4
27/08:30am 12.5 10.2 11.7 95 0.4 SE 15 20 8 11 1023.4 1021.5 2.4
27/08:00am 12.5 9.9 11.9 96 0.3 SE 17 22 9 12 1023.2 1021.3 2.4
27/07:45am 12.3 9.6 11.7 96 0.3 SE 17 24 9 13 1023.2 1021.3 2.4
27/07:30am 12.1 9.3 11.5 96 0.3 SE 17 24 9 13 1023.0 1021.1 2.4
27/07:12am 12.1 9.3 11.5 96 0.3 SE 17 22 9 12 1022.7 1020.7 2.4
27/07:00am 12.1 9.0 11.5 96 0.3 SE 19 24 10 13 1022.4 1020.5 2.4
27/06:53am 12.1 9.0 11.5 96 0.3 SE 19 28 10 15 1022.3 1020.4 2.4
27/06:30am 12.0 9.2 11.4 96 0.3 ESE 17 22 9 12 1022.2 1020.3 2.4
27/06:13am 11.8 8.6 11.2 96 0.3 SE 19 26 10 14 1022.1 1020.2 2.4
27/06:00am 11.8 7.6 11.2 96 0.3 SSE 24 32 13 17 1022.1 1020.2 2.4
27/05:30am 12.0 8.9 11.5 97 0.3 SE 19 24 10 13 1021.8 1019.9 2.4
27/05:19am 12.1 9.0 11.6 97 0.3 SE 19 24 10 13 1021.7 1019.8 2.4
27/05:00am 12.0 8.9 11.5 97 0.3 SE 19 26 10 14 1021.5 1019.5 2.4
27/04:32am 12.0 8.7 11.5 97 0.3 SE 20 28 11 15 1021.2 1019.2 2.2
27/04:30am 12.0 8.7 11.5 97 0.3 SE 20 28 11 15 1021.2 1019.2 2.2
27/04:11am 12.1 8.8 11.6 97 0.3 SE 20 30 11 16 1020.9 1019.0 2.2
27/04:04am 12.1 8.4 11.6 97 0.3 SE 22 30 12 16 1020.8 1018.9 2.2
27/04:00am 12.1 8.4 11.6 97 0.3 SE 22 30 12 16 1020.8 1018.9 2.2
27/03:30am 12.3 8.3 11.8 97 0.3 SSE 24 33 13 18 1020.6 1018.7 2.2
27/03:00am 12.6 9.6 12.1 97 0.3 SE 19 26 10 14 1020.6 1018.7 2.2
27/02:30am 13.0 10.5 12.4 96 0.3 SE 17 24 9 13 1020.7 1018.8 2.2
27/02:00am 13.1 9.3 12.5 96 0.3 SSE 24 37 13 20 1020.9 1019.0 2.2
27/01:34am 13.6 10.3 12.7 94 0.5 SSE 22 28 12 15 1021.1 1019.1 2.2
27/01:30am 13.8 10.9 12.9 94 0.5 SE 20 28 11 15 1021.1 1019.1 2.2
27/01:22am 13.9 10.6 12.8 93 0.6 SE 22 30 12 16 1021.2 1019.2 2.2
27/01:00am 14.6 13.1 13.1 91 0.9 ESE 13 17 7 9 1021.4 1019.4 2.2
27/12:40am 14.7 13.8 13.6 93 0.6 SE 11 15 6 8 1021.4 1019.4 2.2
27/12:30am 14.9 14.0 13.8 93 0.6 SE 11 15 6 8 1021.5 1019.5 2.2
27/12:01am 15.0 14.9 13.9 93 0.6 ESE 7 9 4 5 1021.5 1019.5 2.2
27/12:00am 14.9 14.8 13.8 93 0.6 ESE 7 9 4 5 1021.5 1019.5 2.2
 
Date/Time
EDT
Temp
°C
App
Temp
°C
Dew
Point
Rel
Hum
%
Delta-T
°C
Wind Press
QNH
hPa
Press
MSL
hPa
Rain
since 9 am
mm
Dir
 
Spd
km/h
Gust
km/h
Spd
kts
Gust
kts
26/11:46pm 14.9 14.4 13.8 93 0.6 E 9 11 5 6 1021.4 1019.4 2.2
26/11:30pm 15.0 14.5 13.9 93 0.6 ESE 9 13 5 7 1021.4 1019.4 2.2
26/11:26pm 15.0 14.5 13.9 93 0.6 ESE 9 13 5 7 1021.4 1019.4 2.2
26/11:00pm 15.0 14.5 13.9 93 0.6 E 9 15 5 8 1021.3 1019.3 2.2
26/10:44pm 15.1 14.7 14.0 93 0.6 ENE 9 13 5 7 1021.3 1019.3 2.2
26/10:30pm 15.2 14.4 14.1 93 0.6 ESE 11 13 6 7 1021.3 1019.3 2.2
26/10:25pm 15.2 14.4 14.1 93 0.6 ESE 11 13 6 7 1021.3 1019.3 2.2
26/10:04pm 15.2 13.2 13.9 92 0.8 E 17 20 9 11 1021.1 1019.1 2.0
26/10:00pm 15.2 13.2 13.9 92 0.8 E 17 24 9 13 1020.9 1019.0 2.0
26/09:49pm 15.3 13.8 14.2 93 0.6 ENE 15 22 8 12 1020.9 1019.0 2.0
26/09:30pm 15.5 14.4 14.4 93 0.6 ESE 13 17 7 9 1020.7 1018.8 2.0
26/09:08pm 15.8 14.3 14.3 91 0.9 ESE 15 20 8 11 1020.5 1018.6 0.0
26/09:00pm 15.8 14.7 14.2 90 0.9 ESE 13 20 7 11 1020.3 1018.4 0.0
26/08:30pm 15.9 15.1 13.9 88 1.2 E 11 15 6 8 1020.1 1018.1 0.0
26/08:00pm 16.1 14.9 13.9 87 1.3 E 13 20 7 11 1019.8 1017.8 0.0
26/07:50pm 16.1 13.7 13.9 87 1.3 E 19 24 10 13 1019.6 1017.6 0.0
26/07:30pm 16.3 14.0 14.0 86 1.3 E 19 24 10 13 1019.1 1017.2 0.0
26/07:00pm 16.8 14.5 14.6 87 1.3 ESE 20 26 11 14 1018.7 1016.7 0.0
26/06:53pm 16.7 14.5 14.5 87 1.3 ESE 19 24 10 13 1018.7 1016.7 0.0
26/06:30pm 16.5 13.8 14.5 88 1.2 ESE 22 30 12 16 1018.2 1016.2 0.0
26/06:20pm 16.7 13.6 14.5 87 1.3 ESE 24 33 13 18 1018.1 1016.1 0.0
26/06:00pm 17.4 14.2 14.3 82 1.8 SE 24 28 13 15 1017.6 1015.6 0.0
26/05:30pm 19.0 16.6 14.3 74 2.8 E 20 28 11 15 1017.1 1015.1 0.0
26/05:00pm 19.5 17.0 14.1 71 3.2 ESE 20 32 11 17 1016.9 1014.9 0.0
26/04:30pm 21.8 17.5 13.2 58 5.1 NNE 28 39 15 21 1016.4 1014.3 0.0
26/04:00pm 22.1 17.6 13.7 59 5.0 NNE 30 39 16 21 1016.4 1014.3 0.0
26/03:30pm 22.5 19.0 13.3 56 5.5 NNE 24 32 13 17 1016.6 1014.6 0.0
26/03:00pm 22.3 19.1 13.1 56 5.4 NE 22 33 12 18 1016.6 1014.6 0.0
26/02:30pm 22.5 19.2 12.7 54 5.8 NNE 22 33 12 18 1016.9 1014.9 0.0
26/02:00pm 22.1 18.2 13.2 57 5.3 NNE 26 35 14 19 1017.2 1015.2 0.0
26/01:30pm 20.6 16.9 12.6 60 4.7 NE 24 30 13 16 1017.5 1015.5 0.0
26/01:00pm 21.2 18.1 11.5 54 5.6 NNE 19 24 10 13 1018.1 1016.1 0.0
26/12:30pm 21.8 19.6 13.4 59 5.0 NNE 17 26 9 14 1018.4 1016.4 0.0
26/12:00pm 20.1 18.1 12.8 63 4.3 NE 15 20 8 11 1019.0 1017.1 0.0
26/11:30am 20.8 18.5 10.6 52 5.7 NNW 13 20 7 11 1019.3 1017.4 0.0
26/11:00am 20.3 17.5 13.3 64 4.1 N 20 32 11 17 1019.7 1017.7 0.0
26/10:30am 18.8 15.3 12.3 66 3.7 N 22 32 12 17 1020.0 1018.0 0.0
26/10:00am 18.0 13.9 12.7 71 3.0 N 26 33 14 18 1020.0 1018.0 0.0
26/09:30am 17.4 12.8 12.3 72 2.9 N 28 39 15 21 1020.3 1018.4 0.0
26/09:00am 16.3 12.2 11.5 73 2.7 N 24 32 13 17 1020.5 1018.6 0.0
26/08:30am 15.2 12.0 11.8 80 1.9 N 20 28 11 15 1020.7 1018.8 0.0
26/08:13am 14.7 11.3 11.3 80 1.9 N 20 26 11 14 1020.7 1018.8 0.0
26/08:00am 14.3 10.9 11.1 81 1.8 N 20 28 11 15 1020.6 1018.7 0.0
26/07:30am 13.9 10.7 11.4 85 1.4 NNE 19 24 10 13 1020.3 1018.4 0.0
26/07:00am 13.2 10.5 11.6 90 0.9 NNE 17 20 9 11 1020.4 1018.5 0.0
26/06:30am 12.8 9.6 11.4 91 0.8 NNE 19 22 10 12 1020.2 1018.2 0.0
26/06:00am 12.5 9.6 11.1 91 0.8 NNE 17 22 9 12 1020.0 1018.0 0.0
26/05:30am 12.5 9.6 11.1 91 0.8 NNE 17 24 9 13 1019.8 1017.8 0.0
26/05:00am 12.6 9.1 11.0 90 0.9 NNE 20 26 11 14 1019.7 1017.7 0.0
26/04:30am 12.4 8.6 11.0 91 0.8 NNE 22 28 12 15 1019.6 1017.6 0.0
26/04:00am 12.5 9.6 11.1 91 0.8 NNE 17 24 9 13 1019.6 1017.6 0.0
26/03:30am 12.5 9.1 11.2 92 0.7 NNE 20 28 11 15 1019.6 1017.6 0.0
26/03:00am 12.4 8.6 11.1 92 0.7 NNE 22 30 12 16 1019.9 1017.9 0.0
26/02:30am 12.4 9.0 11.1 92 0.7 NNE 20 28 11 15 1020.2 1018.2 0.0
26/02:00am 12.6 9.4 11.2 91 0.8 NNE 19 26 10 14 1020.5 1018.6 0.0
26/01:30am 12.9 10.5 11.3 90 0.9 NNE 15 19 8 10 1020.9 1019.0 0.0
26/01:00am 13.0 11.3 11.2 89 1.0 NE 11 15 6 8 1021.4 1019.4 0.0
26/12:50am 13.0 11.7 11.2 89 1.0 NE 9 13 5 7 1021.6 1019.7 0.0
26/12:49am 13.0 11.7 11.2 89 1.0 NE 9 13 5 7 1021.6 1019.7 0.0
26/12:30am 13.0 11.4 11.4 90 0.9 NE 11 17 6 9 1021.6 1019.7 0.0
26/12:00am 13.0 10.2 11.2 89 1.0 NE 17 22 9 12 1021.6 1019.7 0.0
 
Date/Time
EDT
Temp
°C
App
Temp
°C
Dew
Point
Rel
Hum
%
Delta-T
°C
Wind Press
QNH
hPa
Press
MSL
hPa
Rain
since 9 am
mm
Dir
 
Spd
km/h
Gust
km/h
Spd
kts
Gust
kts
25/11:30pm 12.9 10.8 11.3 90 0.9 NE 13 15 7 8 1021.8 1019.9 0.0
25/11:22pm 12.8 10.7 11.2 90 0.9 NE 13 15 7 8 1021.8 1019.9 0.0
25/11:00pm 12.7 9.8 11.1 90 0.9 ENE 17 22 9 12 1021.7 1019.8 0.0
25/10:57pm 12.7 9.8 11.1 90 0.9 ENE 17 22 9 12 1021.7 1019.8 0.0
25/10:30pm 13.1 9.9 11.2 88 1.0 NE 19 28 10 15 1021.6 1019.7 0.0
25/10:00pm 13.3 10.5 11.2 87 1.1 NE 17 22 9 12 1021.5 1019.5 0.0
25/09:58pm 13.3 10.5 11.2 87 1.1 ENE 17 22 9 12 1021.5 1019.5 0.0
25/09:53pm 13.3 10.5 11.2 87 1.1 NE 17 22 9 12 1021.5 1019.5 0.0
25/09:30pm 13.3 10.5 11.2 87 1.1 NE 17 20 9 11 1021.3 1019.3 0.0
25/09:00pm 13.4 10.2 11.1 86 1.3 ENE 19 24 10 13 1020.8 1018.9 0.0
25/08:30pm 13.3 10.5 11.4 88 1.0 ENE 17 22 9 12 1020.4 1018.5 0.0
25/08:00pm 13.1 10.3 11.3 89 1.0 ENE 17 22 9 12 1020.1 1018.1 0.0
25/07:59pm 13.0 10.2 11.2 89 1.0 ENE 17 22 9 12 1020.1 1018.1 0.0
25/07:30pm 13.4 9.5 10.9 85 1.4 ENE 22 28 12 15 1019.3 1017.4 0.0
25/07:00pm 14.2 10.7 11.0 81 1.7 ENE 20 26 11 14 1018.8 1016.8 0.0
25/06:30pm 15.1 11.0 11.3 78 2.1 ENE 24 32 13 17 1018.3 1016.3 0.0
25/06:00pm 16.3 13.0 11.7 74 2.6 ENE 20 28 11 15 1017.9 1015.9 0.0
25/05:30pm 17.0 13.4 11.9 72 2.9 E 22 32 12 17 1017.5 1015.5 0.0
25/05:00pm 19.0 15.2 11.3 61 4.3 ENE 22 26 12 14 1016.9 1014.9 0.0
25/04:30pm 23.4 16.2 -5.6 14 12.3 W 24 30 13 16 1016.7 1014.7 0.0
25/04:00pm 24.1 18.4 -0.9 19 11.6 W 19 32 10 17 1016.8 1014.8 0.0
25/03:30pm 23.4 17.0 -4.7 15 12.1 W 20 26 11 14 1016.6 1014.6 0.0
25/03:00pm 23.1 15.9 -4.9 15 12.0 WSW 24 35 13 19 1016.7 1014.7 0.0
25/02:30pm 23.2 16.1 -4.8 15 12.0 W 24 35 13 19 1016.7 1014.7 0.0
25/02:00pm 22.7 15.3 -0.7 21 10.8 WSW 28 41 15 22 1016.9 1014.9 0.0
25/01:30pm 21.9 15.3 -0.1 23 10.2 WSW 24 37 13 20 1016.9 1014.9 0.0
25/01:00pm 21.3 15.3 -1.3 22 10.2 WSW 20 32 11 17 1017.0 1015.0 0.0
25/12:30pm 20.3 14.5 0.2 26 9.3 WSW 20 30 11 16 1017.0 1015.0 0.0
25/12:00pm 19.4 13.5 1.9 31 8.3 WSW 22 30 12 16 1016.9 1014.9 0.0
25/11:30am 18.2 10.8 -0.6 28 8.4 WSW 28 39 15 21 1016.9 1014.9 0.0
25/11:01am 17.2 9.6 0.4 32 7.6 WSW 30 48 16 26 1016.7 1014.7 0.0
25/11:00am 17.3 9.3 0.5 32 7.6 WSW 32 48 17 26 1016.7 1014.7 0.0
25/10:54am 17.1 9.6 1.1 34 7.3 WSW 30 48 16 26 1016.6 1014.6 0.0
25/10:30am 16.3 8.7 0.8 35 7.0 W 30 43 16 23 1016.4 1014.3 0.0
25/10:00am 16.3 9.7 4.0 44 5.9 WSW 28 41 15 22 1016.4 1014.3 0.0
25/09:30am 15.3 8.0 4.7 49 5.2 WSW 32 44 17 24 1015.8 1013.8 0.0
25/09:00am 15.0 8.5 8.0 63 3.6 WSW 32 43 17 23 1015.5 1013.5 -
25/08:30am 15.0 8.1 7.3 60 3.9 WSW 33 46 18 25 1015.3 1013.3 -
25/08:00am 15.9 9.1 7.1 56 4.5 W 32 44 17 24 1014.9 1012.8 -
25/07:30am 16.3 11.8 9.9 66 3.5 WSW 24 33 13 18 1014.3 1012.3 -
25/07:00am 16.5 12.8 12.8 79 2.1 WSW 24 39 13 21 1013.9 1011.9 -
25/06:30am 17.2 14.4 13.3 78 2.3 W 20 30 11 16 1012.9 1010.9 -
25/06:00am 17.4 14.7 13.5 78 2.3 W 20 30 11 16 1012.4 1010.3 -
25/05:30am 17.6 13.8 13.5 77 2.4 W 26 37 14 20 1011.6 1009.5 -
25/05:00am 17.9 15.0 13.0 73 2.8 W 20 37 11 20 1010.9 1008.8 -
25/04:30am 18.0 14.8 13.1 73 2.8 WNW 22 35 12 19 1010.8 1008.7 -
25/04:00am 18.0 14.4 13.1 73 2.9 WNW 24 37 13 20 1010.8 1008.7 -
25/03:30am 17.2 15.4 13.3 78 2.3 WNW 15 19 8 10 1010.5 1008.4 -
25/03:00am 17.3 15.1 13.2 77 2.4 W 17 20 9 11 1010.9 1008.8 0.8
25/02:30am 17.8 15.4 13.9 78 2.3 W 19 24 10 13 1010.9 1008.8 -
25/02:00am 17.3 16.9 14.0 81 1.9 W 9 13 5 7 1010.3 1008.2 -
25/01:30am 17.7 17.2 13.8 78 2.3 W 9 11 5 6 1010.8 1008.7 -
25/01:00am 18.1 16.9 14.0 77 2.4 WSW 13 19 7 10 1011.6 1009.5 -
25/12:30am 20.5 18.1 16.5 78 2.5 W 24 37 13 20 1012.3 1010.2 -
25/12:00am 20.7 21.0 17.1 80 2.3 NW 11 15 6 8 1012.1 1010.0 -
 
Date/Time
EDT
Temp
°C
App
Temp
°C
Dew
Point
Rel
Hum
%
Delta-T
°C
Wind Press
QNH
hPa
Press
MSL
hPa
Rain
since 9 am
mm
Dir
 
Spd
km/h
Gust
km/h
Spd
kts
Gust
kts
24/11:30pm 20.4 21.4 17.8 85 1.7 NW 9 13 5 7 1011.9 1009.8 -
24/11:11pm 20.1 21.6 18.8 92 0.8 NNW 9 13 5 7 1012.0 1009.9 -
24/11:00pm 20.2 21.4 19.0 93 0.8 N 11 15 6 8 1012.1 1010.0 -
24/10:56pm 20.1 21.2 18.9 93 0.8 N 11 15 6 8 1012.1 1010.0 -
24/10:30pm 20.4 20.9 19.2 93 0.8 N 15 17 8 9 1012.1 1010.0 -
24/10:00pm 20.3 20.0 19.1 93 0.8 N 19 22 10 12 1012.2 1010.1 -
24/09:34pm 20.4 21.3 19.2 93 0.8 N 13 19 7 10 1012.1 1010.0 -
24/09:30pm 20.4 21.2 19.1 92 0.8 N 13 19 7 10 1012.2 1010.1 -
24/09:02pm 20.5 20.9 19.0 91 1.0 NNW 15 26 8 14 1011.9 1009.8 -
24/09:00pm 20.6 21.0 19.1 91 1.0 NNW 15 19 8 10 1011.9 1009.8 5.0
24/08:30pm 20.8 20.1 19.5 92 0.8 NNE 22 30 12 16 1011.6 1009.5 -
24/08:29pm 20.8 20.1 19.5 92 0.8 NNE 22 30 12 16 1011.7 1009.6 -
24/08:00pm 20.6 22.4 18.7 89 1.2 NE 7 9 4 5 1011.3 1009.3 -
24/07:30pm 20.9 22.8 18.5 86 1.5 E 6 7 3 4 1011.1 1009.0 -
24/07:00pm 21.3 22.8 18.9 86 1.6 NE 9 11 5 6 1010.6 1008.5 -
24/06:30pm 21.6 23.4 18.2 81 2.2 ENE 6 7 3 4 1010.6 1008.5 -
24/06:00pm 21.9 24.0 19.3 85 1.7 S 7 11 4 6 1010.1 1008.0 -
24/05:35pm 21.6 23.0 18.6 83 1.9 S 9 15 5 8 1010.6 1008.5 -
24/05:30pm 21.8 23.7 19.7 88 1.4 SSE 9 11 5 6 1010.7 1008.6 -
24/05:09pm 21.5 23.3 18.7 84 1.8 S 7 13 4 7 1011.3 1009.3 -
24/05:00pm 21.4 22.7 18.4 83 1.9 SSE 9 13 5 7 1010.9 1008.8 -
24/04:30pm 21.4 22.1 18.8 85 1.7 E 13 17 7 9 1011.7 1009.6 -
24/04:00pm 20.9 22.3 18.7 87 1.4 ESE 9 13 5 7 1012.5 1010.5 -
24/03:30pm 21.4 22.8 18.6 84 1.8 WNW 9 19 5 10 1012.3 1010.2 -
24/03:23pm 21.6 23.4 18.8 84 1.8 NNE 7 11 4 6 1012.0 1009.9 -
24/03:00pm 22.6 20.5 16.2 67 4.0 NW 22 28 12 15 1012.2 1010.1 -
24/02:30pm 27.2 24.9 14.6 46 7.8 NE 20 30 11 16 1011.0 1008.9 -
24/01:30pm 27.3 23.4 13.3 42 8.5 NNE 26 32 14 17 1012.3 1010.2 0.0
24/01:00pm 26.6 23.9 14.7 48 7.4 NNE 22 28 12 15 1013.3 1011.2 0.0
24/12:30pm 25.8 24.4 14.6 50 6.9 ENE 15 19 8 10 1013.9 1011.9 0.0
24/12:00pm 24.5 24.4 16.0 59 5.3 N 11 17 6 9 1015.0 1012.9 0.0
24/11:30am 24.2 23.9 16.5 62 4.9 NNE 13 17 7 9 1015.2 1013.2 0.0
24/11:00am 23.7 22.7 16.7 65 4.4 NE 17 20 9 11 1015.7 1013.7 0.0
24/10:30am 22.5 21.3 17.4 73 3.2 NNE 20 24 11 13 1016.0 1014.0 0.0

Other Formats:

Comma delimited format used in spreadsheet applications
http://www.bom.gov.au/fwo/IDN60801/IDN60801.94746.axf

JavaScript Object Notation format (JSON) in row-major order
http://www.bom.gov.au/fwo/IDN60801/IDN60801.94746.json